N162HR K6S0-MYTC
Flight info
| Callsign | N162HR |
|---|---|
| Flight time | 4h 34m |
| Altitude | 45000 |
| Route | CZI DCT TST DCT LBF DCT BUM DCT ARG DCT VUZ DCT OMN Y185 BEERD DCT GEROT |
| Aircraft | GLF5/M-SBDE2E3FGHIJ3J4J5P2RWXY/LB1D1 |
Departure
| Time | 2026-05-09 00:58 |
|---|---|
| Airport | Big Timber Airport (K6S0) |
Arrival
| Time | 2026-05-09 05:33 |
|---|---|
| Airport | Torch Cay Airport (MYTC) |
| Time | Latitude | Longitude | Altitude | Speed | Heading |
|---|---|---|---|---|---|
| 2026-05-09 00:29 | 45.80879 | -109.97428 | 4477 ft | 0 kts | 94° |
| 2026-05-09 00:54 | 45.80878 | -109.97427 | 4477 ft | 0 kts | 94° |
| 2026-05-09 00:54 | 45.80878 | -109.97420 | 4477 ft | 1 kts | 96° |
| 2026-05-09 00:55 | 45.80867 | -109.97396 | 4477 ft | 3 kts | 146° |
| 2026-05-09 00:55 | 45.80853 | -109.97348 | 4476 ft | 9 kts | 89° |
| 2026-05-09 00:55 | 45.80873 | -109.97242 | 4472 ft | 11 kts | 73° |
| 2026-05-09 00:55 | 45.80897 | -109.97122 | 4468 ft | 13 kts | 73° |
| 2026-05-09 00:56 | 45.80925 | -109.96985 | 4463 ft | 15 kts | 74° |
| 2026-05-09 00:56 | 45.80954 | -109.96835 | 4457 ft | 12 kts | 74° |
| 2026-05-09 00:56 | 45.80952 | -109.96789 | 4455 ft | 3 kts | 122° |
| 2026-05-09 00:56 | 45.80947 | -109.96782 | 4454 ft | 0 kts | 135° |
| 2026-05-09 00:57 | 45.80947 | -109.96781 | 4454 ft | 0 kts | 139° |
| 2026-05-09 00:57 | 45.80941 | -109.96775 | 4454 ft | 2 kts | 144° |
| 2026-05-09 00:57 | 45.80924 | -109.96764 | 4454 ft | 3 kts | 162° |
| 2026-05-09 00:57 | 45.80901 | -109.96770 | 4455 ft | 3 kts | 221° |
| 2026-05-09 00:58 | 45.80881 | -109.96860 | 4458 ft | 24 kts | 254° |
| 2026-05-09 00:58 | 45.80755 | -109.97497 | 4480 ft | 107 kts | 254° |
| 2026-05-09 00:58 | 45.80485 | -109.98820 | 4624 ft | 161 kts | 256° |
| 2026-05-09 00:58 | 45.80161 | -110.00384 | 5558 ft | 165 kts | 255° |
| 2026-05-09 00:59 | 45.79780 | -110.01961 | 5975 ft | 194 kts | 253° |
| 2026-05-09 00:59 | 45.79259 | -110.04018 | 6352 ft | 233 kts | 243° |
| 2026-05-09 00:59 | 45.78098 | -110.05634 | 7108 ft | 258 kts | 211° |
| 2026-05-09 00:59 | 45.76200 | -110.06146 | 7460 ft | 300 kts | 172° |
| 2026-05-09 01:00 | 45.74370 | -110.04878 | 8794 ft | 299 kts | 139° |
| 2026-05-09 01:00 | 45.73230 | -110.02416 | 9842 ft | 307 kts | 108° |
| 2026-05-09 01:00 | 45.72566 | -109.99560 | 11151 ft | 304 kts | 108° |
| 2026-05-09 01:00 | 45.71753 | -109.96716 | 11913 ft | 323 kts | 116° |
| 2026-05-09 01:01 | 45.70699 | -109.93876 | 13001 ft | 328 kts | 120° |
| 2026-05-09 01:01 | 45.69541 | -109.91077 | 14207 ft | 330 kts | 122° |
| 2026-05-09 01:01 | 45.68321 | -109.88290 | 15269 ft | 338 kts | 123° |
| 2026-05-09 01:01 | 45.67052 | -109.85470 | 16329 ft | 346 kts | 124° |
| 2026-05-09 01:02 | 45.65722 | -109.82553 | 17328 ft | 356 kts | 124° |
| 2026-05-09 01:02 | 45.64289 | -109.79433 | 17349 ft | 397 kts | 124° |
| 2026-05-09 01:02 | 45.62721 | -109.76028 | 17748 ft | 422 kts | 124° |
| 2026-05-09 01:02 | 45.61109 | -109.72536 | 18989 ft | 422 kts | 124° |
| 2026-05-09 01:03 | 45.59490 | -109.69034 | 19875 ft | 433 kts | 123° |
| 2026-05-09 01:03 | 45.57810 | -109.65404 | 20813 ft | 441 kts | 123° |
| 2026-05-09 01:03 | 45.56128 | -109.61778 | 21791 ft | 448 kts | 123° |
| 2026-05-09 01:03 | 45.54405 | -109.58067 | 22708 ft | 456 kts | 123° |
| 2026-05-09 01:04 | 45.52636 | -109.54262 | 23663 ft | 463 kts | 123° |
| 2026-05-09 01:04 | 45.50854 | -109.50432 | 24563 ft | 470 kts | 123° |
| 2026-05-09 01:04 | 45.49029 | -109.46516 | 25413 ft | 478 kts | 123° |
| 2026-05-09 01:04 | 45.47168 | -109.42527 | 26297 ft | 483 kts | 123° |
| 2026-05-09 01:05 | 45.45304 | -109.38540 | 27018 ft | 491 kts | 123° |
| 2026-05-09 01:05 | 45.43415 | -109.34507 | 27871 ft | 495 kts | 124° |
| 2026-05-09 01:05 | 45.39539 | -109.26245 | 29182 ft | 510 kts | 124° |
| 2026-05-09 01:06 | 45.37572 | -109.22061 | 29943 ft | 514 kts | 124° |
| 2026-05-09 01:06 | 45.35569 | -109.17804 | 30590 ft | 521 kts | 124° |
| 2026-05-09 01:06 | 45.33537 | -109.13496 | 31327 ft | 524 kts | 124° |
| 2026-05-09 01:06 | 45.31495 | -109.09174 | 32296 ft | 522 kts | 124° |
| 2026-05-09 01:07 | 45.29480 | -109.04916 | 33110 ft | 522 kts | 124° |
| 2026-05-09 01:07 | 45.27444 | -109.00615 | 33905 ft | 521 kts | 124° |
| 2026-05-09 01:07 | 45.25441 | -108.96392 | 34794 ft | 519 kts | 124° |
| 2026-05-09 01:07 | 45.23400 | -108.92099 | 35667 ft | 517 kts | 124° |
| 2026-05-09 01:08 | 45.21411 | -108.87920 | 36523 ft | 515 kts | 124° |
| 2026-05-09 01:08 | 45.19401 | -108.83697 | 37295 ft | 514 kts | 125° |
| 2026-05-09 01:08 | 45.17401 | -108.79507 | 37974 ft | 515 kts | 124° |
| 2026-05-09 01:08 | 45.15403 | -108.75327 | 38636 ft | 515 kts | 125° |
| 2026-05-09 01:09 | 45.13390 | -108.71122 | 39297 ft | 514 kts | 125° |
| 2026-05-09 01:09 | 45.11385 | -108.66940 | 39963 ft | 513 kts | 125° |
| 2026-05-09 01:09 | 45.09378 | -108.62762 | 40510 ft | 513 kts | 124° |
| 2026-05-09 01:09 | 45.07386 | -108.58618 | 41190 ft | 510 kts | 124° |
| 2026-05-09 01:10 | 45.05396 | -108.54485 | 41724 ft | 509 kts | 124° |
| 2026-05-09 01:10 | 45.03389 | -108.50324 | 42240 ft | 508 kts | 124° |
| 2026-05-09 01:10 | 45.01404 | -108.46210 | 42724 ft | 507 kts | 123° |
| 2026-05-09 01:10 | 44.99423 | -108.42114 | 43160 ft | 505 kts | 123° |
| 2026-05-09 01:11 | 44.97445 | -108.38030 | 43539 ft | 505 kts | 123° |
| 2026-05-09 01:11 | 44.95457 | -108.33931 | 43883 ft | 505 kts | 124° |
| 2026-05-09 01:11 | 44.93471 | -108.29842 | 44216 ft | 504 kts | 124° |
| 2026-05-09 01:11 | 44.91489 | -108.25764 | 44533 ft | 504 kts | 124° |
| 2026-05-09 01:12 | 44.89521 | -108.21723 | 44843 ft | 503 kts | 123° |
| 2026-05-09 01:12 | 44.87537 | -108.17653 | 45011 ft | 507 kts | 123° |
| 2026-05-09 01:12 | 44.85521 | -108.13525 | 45030 ft | 514 kts | 123° |
| 2026-05-09 01:13 | 44.81411 | -108.05127 | 45038 ft | 524 kts | 123° |
| 2026-05-09 01:13 | 44.77287 | -107.96726 | 45041 ft | 521 kts | 123° |
| 2026-05-09 01:14 | 44.73180 | -107.88383 | 45039 ft | 514 kts | 123° |
| 2026-05-09 01:14 | 44.69102 | -107.80124 | 45064 ft | 515 kts | 123° |
| 2026-05-09 01:15 | 44.64986 | -107.71811 | 45071 ft | 519 kts | 123° |
| 2026-05-09 01:15 | 44.60873 | -107.63528 | 45066 ft | 520 kts | 123° |
| 2026-05-09 01:16 | 44.56750 | -107.55250 | 45077 ft | 518 kts | 123° |
| 2026-05-09 01:16 | 44.52626 | -107.46994 | 45082 ft | 519 kts | 123° |
| 2026-05-09 01:17 | 44.46395 | -107.34562 | 45107 ft | 518 kts | 124° |
| 2026-05-09 01:17 | 44.42247 | -107.26317 | 45106 ft | 518 kts | 124° |
| 2026-05-09 01:18 | 44.38082 | -107.18059 | 45101 ft | 518 kts | 124° |
| 2026-05-09 01:18 | 44.33930 | -107.09851 | 45101 ft | 519 kts | 124° |
| 2026-05-09 01:19 | 44.29763 | -107.01640 | 45116 ft | 519 kts | 124° |
| 2026-05-09 01:19 | 44.25550 | -106.93356 | 45095 ft | 519 kts | 124° |
| 2026-05-09 01:20 | 44.21378 | -106.85180 | 45084 ft | 518 kts | 124° |
| 2026-05-09 01:20 | 44.17193 | -106.77001 | 45055 ft | 517 kts | 124° |
| 2026-05-09 01:21 | 44.13016 | -106.68862 | 45056 ft | 518 kts | 124° |
| 2026-05-09 01:21 | 44.08815 | -106.60694 | 45061 ft | 520 kts | 124° |
| 2026-05-09 01:22 | 44.04620 | -106.52565 | 45045 ft | 520 kts | 124° |
| 2026-05-09 01:22 | 44.00399 | -106.44409 | 45041 ft | 520 kts | 124° |
| 2026-05-09 01:23 | 43.96613 | -106.35936 | 45032 ft | 518 kts | 118° |
| 2026-05-09 01:23 | 43.92831 | -106.27294 | 45019 ft | 518 kts | 120° |
| 2026-05-09 01:24 | 43.89092 | -106.18797 | 45016 ft | 519 kts | 120° |
| 2026-05-09 01:24 | 43.85332 | -106.10279 | 44970 ft | 517 kts | 120° |
| 2026-05-09 01:25 | 43.81583 | -106.01814 | 44978 ft | 518 kts | 119° |
| 2026-05-09 01:25 | 43.77791 | -105.93273 | 44989 ft | 519 kts | 120° |
| 2026-05-09 01:26 | 43.73995 | -105.84754 | 44990 ft | 519 kts | 120° |
| 2026-05-09 01:26 | 43.70200 | -105.76257 | 44984 ft | 518 kts | 119° |
| 2026-05-09 01:27 | 43.66425 | -105.67830 | 45004 ft | 519 kts | 120° |
| 2026-05-09 01:27 | 43.62627 | -105.59379 | 45001 ft | 518 kts | 120° |
| 2026-05-09 01:28 | 43.58817 | -105.50923 | 44987 ft | 518 kts | 119° |
| 2026-05-09 01:28 | 43.55027 | -105.42536 | 44985 ft | 518 kts | 119° |
| 2026-05-09 01:29 | 43.51222 | -105.34141 | 44976 ft | 518 kts | 120° |
| 2026-05-09 01:29 | 43.47395 | -105.25723 | 44986 ft | 518 kts | 120° |
| 2026-05-09 01:30 | 43.43574 | -105.17339 | 44981 ft | 518 kts | 120° |
| 2026-05-09 01:30 | 43.39726 | -105.08921 | 44991 ft | 520 kts | 120° |
| 2026-05-09 01:31 | 43.35880 | -105.00533 | 44998 ft | 519 kts | 120° |
| 2026-05-09 01:31 | 43.31999 | -104.92091 | 44998 ft | 519 kts | 120° |
| 2026-05-09 01:32 | 43.28135 | -104.83710 | 44981 ft | 517 kts | 120° |
| 2026-05-09 01:32 | 43.24285 | -104.75384 | 44984 ft | 517 kts | 120° |
| 2026-05-09 01:33 | 43.20435 | -104.67081 | 44997 ft | 518 kts | 120° |
| 2026-05-09 01:33 | 43.16550 | -104.58727 | 44997 ft | 519 kts | 120° |
| 2026-05-09 01:34 | 43.12698 | -104.50469 | 44987 ft | 518 kts | 120° |
| 2026-05-09 01:34 | 43.08811 | -104.42155 | 44999 ft | 518 kts | 120° |
| 2026-05-09 01:35 | 43.04918 | -104.33857 | 44967 ft | 520 kts | 121° |
| 2026-05-09 01:35 | 43.01091 | -104.25717 | 44976 ft | 519 kts | 121° |
| 2026-05-09 01:36 | 42.97196 | -104.17458 | 44971 ft | 519 kts | 121° |
| 2026-05-09 01:36 | 42.93265 | -104.09146 | 44968 ft | 519 kts | 121° |
| 2026-05-09 01:37 | 42.89372 | -104.00937 | 44963 ft | 520 kts | 121° |
| 2026-05-09 01:37 | 42.85447 | -103.92683 | 44963 ft | 520 kts | 121° |
| 2026-05-09 01:38 | 42.81503 | -103.84411 | 44977 ft | 520 kts | 121° |
| 2026-05-09 01:38 | 42.77553 | -103.76154 | 44964 ft | 519 kts | 121° |
| 2026-05-09 01:39 | 42.73620 | -103.67950 | 44956 ft | 519 kts | 121° |
| 2026-05-09 01:39 | 42.69682 | -103.59761 | 44959 ft | 520 kts | 121° |
| 2026-05-09 01:40 | 42.65718 | -103.51543 | 44957 ft | 521 kts | 121° |
| 2026-05-09 01:40 | 42.61739 | -103.43310 | 44964 ft | 520 kts | 121° |
| 2026-05-09 01:41 | 42.57777 | -103.35139 | 44955 ft | 520 kts | 121° |
| 2026-05-09 01:41 | 42.53578 | -103.27177 | 44964 ft | 520 kts | 126° |
| 2026-05-09 01:42 | 42.49185 | -103.19384 | 44954 ft | 521 kts | 127° |
| 2026-05-09 01:42 | 42.44770 | -103.11600 | 44963 ft | 522 kts | 126° |
| 2026-05-09 01:43 | 42.40373 | -103.03861 | 44965 ft | 522 kts | 126° |
| 2026-05-09 01:43 | 42.35950 | -102.96099 | 44964 ft | 522 kts | 127° |
| 2026-05-09 01:44 | 42.31513 | -102.88334 | 44951 ft | 523 kts | 127° |
| 2026-05-09 01:44 | 42.27080 | -102.80596 | 44974 ft | 523 kts | 127° |
| 2026-05-09 01:45 | 42.22622 | -102.72833 | 44956 ft | 522 kts | 127° |
| 2026-05-09 01:45 | 42.18185 | -102.65129 | 44957 ft | 523 kts | 127° |
| 2026-05-09 01:46 | 42.13729 | -102.57409 | 44963 ft | 523 kts | 127° |
| 2026-05-09 01:46 | 42.09300 | -102.49757 | 44966 ft | 522 kts | 127° |
| 2026-05-09 01:47 | 42.04829 | -102.42052 | 44973 ft | 521 kts | 127° |
| 2026-05-09 01:47 | 42.00383 | -102.34409 | 44980 ft | 522 kts | 127° |
| 2026-05-09 01:48 | 41.95914 | -102.26749 | 44960 ft | 523 kts | 127° |
| 2026-05-09 01:48 | 41.91431 | -102.19081 | 44964 ft | 524 kts | 127° |
| 2026-05-09 01:49 | 41.86950 | -102.11435 | 44950 ft | 523 kts | 128° |
| 2026-05-09 01:49 | 41.82458 | -102.03790 | 44940 ft | 521 kts | 128° |
| 2026-05-09 01:50 | 41.77970 | -101.96174 | 44954 ft | 522 kts | 128° |
| 2026-05-09 01:50 | 41.73462 | -101.88543 | 44935 ft | 522 kts | 128° |
| 2026-05-09 01:51 | 41.68958 | -101.80937 | 44955 ft | 522 kts | 128° |
| 2026-05-09 01:51 | 41.64467 | -101.73370 | 44938 ft | 520 kts | 128° |
| 2026-05-09 01:52 | 41.59993 | -101.65852 | 44929 ft | 520 kts | 128° |
| 2026-05-09 01:52 | 41.55476 | -101.58280 | 44933 ft | 521 kts | 128° |
| 2026-05-09 01:53 | 41.50981 | -101.50765 | 44929 ft | 520 kts | 128° |
| 2026-05-09 01:53 | 41.46480 | -101.43259 | 44933 ft | 520 kts | 128° |
| 2026-05-09 01:54 | 41.41964 | -101.35744 | 44926 ft | 520 kts | 128° |
| 2026-05-09 01:54 | 41.37431 | -101.28222 | 44923 ft | 520 kts | 129° |
| 2026-05-09 01:55 | 41.32932 | -101.20773 | 44936 ft | 520 kts | 129° |
| 2026-05-09 01:55 | 41.28392 | -101.13276 | 44932 ft | 521 kts | 129° |
| 2026-05-09 01:56 | 41.23842 | -101.05781 | 44922 ft | 519 kts | 129° |
| 2026-05-09 01:56 | 41.19302 | -100.98318 | 44935 ft | 520 kts | 129° |
| 2026-05-09 01:57 | 41.14769 | -100.90887 | 44937 ft | 521 kts | 129° |
| 2026-05-09 01:57 | 41.10228 | -100.83462 | 44934 ft | 520 kts | 129° |
| 2026-05-09 01:58 | 41.05668 | -100.76019 | 44932 ft | 520 kts | 128° |
| 2026-05-09 01:58 | 41.03711 | -100.72065 | 44939 ft | 518 kts | 116° |
| 2026-05-09 01:58 | 41.02073 | -100.67808 | 44949 ft | 520 kts | 116° |
| 2026-05-09 01:59 | 40.98719 | -100.59383 | 44925 ft | 520 kts | 117° |
| 2026-05-09 01:59 | 40.95335 | -100.50967 | 44926 ft | 519 kts | 117° |
| 2026-05-09 02:00 | 40.91953 | -100.42587 | 44931 ft | 518 kts | 117° |
| 2026-05-09 02:00 | 40.88549 | -100.34174 | 44930 ft | 519 kts | 117° |
| 2026-05-09 02:01 | 40.85153 | -100.25806 | 44914 ft | 519 kts | 117° |
| 2026-05-09 02:01 | 40.81737 | -100.17411 | 44922 ft | 519 kts | 117° |
| 2026-05-09 02:02 | 40.78308 | -100.09010 | 44922 ft | 520 kts | 117° |
| 2026-05-09 02:02 | 40.74877 | -100.00626 | 44914 ft | 521 kts | 117° |
| 2026-05-09 02:03 | 40.71436 | -99.92242 | 44902 ft | 521 kts | 118° |
| 2026-05-09 02:03 | 40.67990 | -99.83868 | 44897 ft | 522 kts | 118° |
| 2026-05-09 02:04 | 40.64552 | -99.75539 | 44899 ft | 522 kts | 118° |
| 2026-05-09 02:04 | 40.61094 | -99.67183 | 44896 ft | 522 kts | 118° |
| 2026-05-09 02:05 | 40.57634 | -99.58845 | 44894 ft | 521 kts | 118° |
| 2026-05-09 02:05 | 40.54167 | -99.50517 | 44898 ft | 521 kts | 118° |
| 2026-05-09 02:06 | 40.50696 | -99.42195 | 44895 ft | 520 kts | 118° |
| 2026-05-09 02:07 | 40.45472 | -99.29721 | 44877 ft | 520 kts | 119° |
| 2026-05-09 02:07 | 40.41991 | -99.21435 | 44895 ft | 519 kts | 119° |
| 2026-05-09 02:08 | 40.38503 | -99.13159 | 44865 ft | 521 kts | 118° |
| 2026-05-09 02:08 | 40.34989 | -99.04842 | 44895 ft | 523 kts | 119° |
| 2026-05-09 02:09 | 40.31453 | -98.96493 | 44884 ft | 522 kts | 119° |
| 2026-05-09 02:09 | 40.27949 | -98.88245 | 44881 ft | 522 kts | 119° |
| 2026-05-09 02:10 | 40.24435 | -98.79993 | 44901 ft | 522 kts | 119° |
| 2026-05-09 02:10 | 40.20892 | -98.71697 | 44882 ft | 522 kts | 119° |
| 2026-05-09 02:11 | 40.17363 | -98.63459 | 44886 ft | 521 kts | 119° |
| 2026-05-09 02:11 | 40.13828 | -98.55228 | 44890 ft | 521 kts | 119° |
| 2026-05-09 02:12 | 40.10292 | -98.47015 | 44869 ft | 521 kts | 119° |
| 2026-05-09 02:12 | 40.06733 | -98.38771 | 44875 ft | 521 kts | 119° |
| 2026-05-09 02:13 | 40.03184 | -98.30569 | 44879 ft | 522 kts | 120° |
| 2026-05-09 02:13 | 39.99590 | -98.22292 | 44866 ft | 520 kts | 120° |
| 2026-05-09 02:14 | 39.96020 | -98.14089 | 44850 ft | 522 kts | 120° |
| 2026-05-09 02:14 | 39.92394 | -98.05778 | 44845 ft | 525 kts | 120° |
| 2026-05-09 02:15 | 39.88803 | -97.97569 | 44832 ft | 525 kts | 120° |
| 2026-05-09 02:15 | 39.85194 | -97.89344 | 44830 ft | 524 kts | 120° |
| 2026-05-09 02:16 | 39.81579 | -97.81126 | 44838 ft | 524 kts | 120° |
| 2026-05-09 02:16 | 39.77950 | -97.72898 | 44843 ft | 525 kts | 120° |
| 2026-05-09 02:17 | 39.74316 | -97.64683 | 44844 ft | 525 kts | 120° |
| 2026-05-09 02:17 | 39.70699 | -97.56524 | 44847 ft | 525 kts | 120° |
| 2026-05-09 02:18 | 39.67062 | -97.48343 | 44858 ft | 525 kts | 120° |
| 2026-05-09 02:18 | 39.63394 | -97.40113 | 44848 ft | 525 kts | 120° |
| 2026-05-09 02:19 | 39.59729 | -97.31913 | 44831 ft | 525 kts | 121° |
| 2026-05-09 02:19 | 39.56068 | -97.23741 | 44842 ft | 526 kts | 121° |
| 2026-05-09 02:20 | 39.52377 | -97.15527 | 44841 ft | 527 kts | 121° |
| 2026-05-09 02:20 | 39.48701 | -97.07367 | 44843 ft | 527 kts | 121° |
| 2026-05-09 02:21 | 39.44991 | -96.99147 | 44854 ft | 527 kts | 121° |
| 2026-05-09 02:21 | 39.41292 | -96.90981 | 44856 ft | 527 kts | 121° |
| 2026-05-09 02:22 | 39.37609 | -96.82868 | 44858 ft | 527 kts | 121° |
| 2026-05-09 02:22 | 39.33877 | -96.74667 | 44874 ft | 527 kts | 121° |
| 2026-05-09 02:23 | 39.30185 | -96.66580 | 44866 ft | 527 kts | 122° |
| 2026-05-09 02:23 | 39.26426 | -96.58361 | 44865 ft | 527 kts | 122° |
| 2026-05-09 02:24 | 39.22716 | -96.50274 | 44865 ft | 526 kts | 122° |
| 2026-05-09 02:24 | 39.19010 | -96.42216 | 44867 ft | 525 kts | 122° |
| 2026-05-09 02:25 | 39.15283 | -96.34132 | 44872 ft | 525 kts | 123° |
| 2026-05-09 02:25 | 39.11544 | -96.26045 | 44867 ft | 525 kts | 123° |
| 2026-05-09 02:26 | 39.07795 | -96.17953 | 44868 ft | 525 kts | 123° |
| 2026-05-09 02:26 | 39.04061 | -96.09917 | 44872 ft | 525 kts | 123° |
| 2026-05-09 02:27 | 39.00319 | -96.01883 | 44869 ft | 524 kts | 123° |
| 2026-05-09 02:27 | 38.96587 | -95.93891 | 44876 ft | 524 kts | 123° |
| 2026-05-09 02:28 | 38.92829 | -95.85865 | 44874 ft | 526 kts | 123° |
| 2026-05-09 02:28 | 38.89060 | -95.77835 | 44870 ft | 527 kts | 123° |
| 2026-05-09 02:29 | 38.85249 | -95.69735 | 44878 ft | 527 kts | 123° |
| 2026-05-09 02:29 | 38.81490 | -95.61764 | 44885 ft | 526 kts | 123° |
| 2026-05-09 02:30 | 38.77680 | -95.53709 | 44879 ft | 528 kts | 123° |
| 2026-05-09 02:30 | 38.73879 | -95.45689 | 44886 ft | 528 kts | 123° |
| 2026-05-09 02:31 | 38.70073 | -95.37684 | 44880 ft | 530 kts | 123° |
| 2026-05-09 02:31 | 38.66232 | -95.29620 | 44879 ft | 530 kts | 124° |
| 2026-05-09 02:32 | 38.62369 | -95.21532 | 44870 ft | 529 kts | 124° |
| 2026-05-09 02:32 | 38.58528 | -95.13514 | 44870 ft | 531 kts | 124° |
| 2026-05-09 02:33 | 38.54664 | -95.05466 | 44867 ft | 533 kts | 124° |
| 2026-05-09 02:33 | 38.50796 | -94.97427 | 44872 ft | 533 kts | 124° |
| 2026-05-09 02:34 | 38.46928 | -94.89407 | 44857 ft | 534 kts | 124° |
| 2026-05-09 02:34 | 38.43017 | -94.81323 | 44863 ft | 535 kts | 124° |
| 2026-05-09 02:35 | 38.39138 | -94.73320 | 44864 ft | 535 kts | 125° |
| 2026-05-09 02:35 | 38.35220 | -94.65260 | 44874 ft | 536 kts | 124° |
| 2026-05-09 02:36 | 38.31298 | -94.57211 | 44858 ft | 536 kts | 124° |
| 2026-05-09 02:36 | 38.27348 | -94.49188 | 44866 ft | 535 kts | 127° |
| 2026-05-09 02:37 | 38.22955 | -94.41522 | 44852 ft | 536 kts | 129° |
| 2026-05-09 02:37 | 38.18546 | -94.33930 | 44871 ft | 536 kts | 130° |
| 2026-05-09 02:38 | 38.14106 | -94.26314 | 44846 ft | 535 kts | 130° |
| 2026-05-09 02:38 | 38.09675 | -94.18732 | 44867 ft | 537 kts | 130° |
| 2026-05-09 02:39 | 38.05225 | -94.11137 | 44850 ft | 535 kts | 130° |
| 2026-05-09 02:39 | 38.00798 | -94.03593 | 44858 ft | 536 kts | 130° |
| 2026-05-09 02:40 | 37.96340 | -93.96015 | 44884 ft | 538 kts | 130° |
| 2026-05-09 02:40 | 37.91870 | -93.88437 | 44891 ft | 537 kts | 129° |
| 2026-05-09 02:41 | 37.87393 | -93.80862 | 44883 ft | 535 kts | 130° |
| 2026-05-09 02:41 | 37.82937 | -93.73340 | 44886 ft | 534 kts | 130° |
| 2026-05-09 02:42 | 37.78472 | -93.65823 | 44888 ft | 537 kts | 130° |
| 2026-05-09 02:42 | 37.73996 | -93.58302 | 44892 ft | 535 kts | 130° |
| 2026-05-09 02:43 | 37.69491 | -93.50745 | 44890 ft | 535 kts | 130° |
| 2026-05-09 02:43 | 37.65012 | -93.43258 | 44881 ft | 534 kts | 129° |
| 2026-05-09 02:44 | 37.60472 | -93.35681 | 44893 ft | 536 kts | 131° |
| 2026-05-09 02:44 | 37.55967 | -93.28183 | 44881 ft | 534 kts | 131° |
| 2026-05-09 02:45 | 37.51502 | -93.20760 | 44883 ft | 532 kts | 131° |
| 2026-05-09 02:45 | 37.47013 | -93.13323 | 44890 ft | 532 kts | 131° |
| 2026-05-09 02:46 | 37.42560 | -93.05959 | 44872 ft | 533 kts | 131° |
| 2026-05-09 02:46 | 37.38035 | -92.98492 | 44876 ft | 534 kts | 131° |
| 2026-05-09 02:47 | 37.33569 | -92.91142 | 44891 ft | 531 kts | 131° |
| 2026-05-09 02:47 | 37.29063 | -92.83735 | 44900 ft | 532 kts | 132° |
| 2026-05-09 02:48 | 37.24586 | -92.76399 | 44890 ft | 532 kts | 132° |
| 2026-05-09 02:48 | 37.20084 | -92.69038 | 44892 ft | 529 kts | 132° |
| 2026-05-09 02:49 | 37.15588 | -92.61699 | 44898 ft | 531 kts | 132° |
| 2026-05-09 02:49 | 37.11041 | -92.54291 | 44908 ft | 532 kts | 132° |
| 2026-05-09 02:50 | 37.06519 | -92.46941 | 44884 ft | 530 kts | 133° |
| 2026-05-09 02:50 | 37.01989 | -92.39603 | 44884 ft | 531 kts | 133° |
| 2026-05-09 02:51 | 36.97474 | -92.32300 | 44885 ft | 531 kts | 133° |
| 2026-05-09 02:51 | 36.92961 | -92.25013 | 44881 ft | 530 kts | 134° |
| 2026-05-09 02:52 | 36.88443 | -92.17739 | 44862 ft | 530 kts | 134° |
| 2026-05-09 02:52 | 36.83927 | -92.10478 | 44879 ft | 533 kts | 134° |
| 2026-05-09 02:53 | 36.79385 | -92.03194 | 44880 ft | 532 kts | 134° |
| 2026-05-09 02:53 | 36.74854 | -91.95943 | 44889 ft | 528 kts | 135° |
| 2026-05-09 02:54 | 36.70322 | -91.88707 | 44902 ft | 530 kts | 134° |
| 2026-05-09 02:54 | 36.65745 | -91.81416 | 44901 ft | 534 kts | 134° |
| 2026-05-09 02:55 | 36.61187 | -91.74169 | 44866 ft | 532 kts | 134° |
| 2026-05-09 02:55 | 36.56611 | -91.66907 | 44897 ft | 532 kts | 134° |
| 2026-05-09 02:56 | 36.52049 | -91.59683 | 44913 ft | 533 kts | 134° |
| 2026-05-09 02:56 | 36.47431 | -91.52392 | 44880 ft | 533 kts | 134° |
| 2026-05-09 02:57 | 36.42853 | -91.45171 | 44861 ft | 532 kts | 134° |
| 2026-05-09 02:57 | 36.38294 | -91.38000 | 44878 ft | 532 kts | 134° |
| 2026-05-09 02:58 | 36.35153 | -91.33067 | 44859 ft | 533 kts | 135° |
| 2026-05-09 02:58 | 36.30899 | -91.26403 | 44855 ft | 531 kts | 135° |
| 2026-05-09 02:59 | 36.26325 | -91.19244 | 44858 ft | 532 kts | 135° |
| 2026-05-09 02:59 | 36.21741 | -91.12090 | 44864 ft | 533 kts | 136° |
| 2026-05-09 03:00 | 36.17112 | -91.04878 | 44855 ft | 534 kts | 136° |
| 2026-05-09 03:00 | 36.12469 | -90.97661 | 44873 ft | 536 kts | 136° |
| 2026-05-09 03:01 | 36.08073 | -90.90252 | 44883 ft | 539 kts | 131° |
| 2026-05-09 03:01 | 36.03734 | -90.82608 | 44892 ft | 539 kts | 132° |
| 2026-05-09 03:02 | 35.99409 | -90.75021 | 44873 ft | 539 kts | 132° |
| 2026-05-09 03:02 | 35.95090 | -90.67467 | 44883 ft | 538 kts | 133° |
| 2026-05-09 03:03 | 35.90746 | -90.59887 | 44898 ft | 541 kts | 133° |
| 2026-05-09 03:03 | 35.86379 | -90.52282 | 44903 ft | 542 kts | 132° |
| 2026-05-09 03:04 | 35.82109 | -90.44860 | 44908 ft | 540 kts | 133° |
| 2026-05-09 03:04 | 35.77784 | -90.37365 | 44904 ft | 540 kts | 133° |
| 2026-05-09 03:05 | 35.73433 | -90.29836 | 44881 ft | 541 kts | 133° |
| 2026-05-09 03:05 | 35.69073 | -90.22311 | 44882 ft | 542 kts | 133° |
| 2026-05-09 03:06 | 35.64687 | -90.14753 | 44887 ft | 543 kts | 134° |
| 2026-05-09 03:06 | 35.60303 | -90.07215 | 44896 ft | 542 kts | 133° |
| 2026-05-09 03:07 | 35.55934 | -89.99721 | 44900 ft | 542 kts | 134° |
| 2026-05-09 03:07 | 35.51570 | -89.92254 | 44896 ft | 540 kts | 134° |
| 2026-05-09 03:08 | 35.47154 | -89.84709 | 44907 ft | 542 kts | 134° |
| 2026-05-09 03:08 | 35.42723 | -89.77159 | 44913 ft | 544 kts | 133° |
| 2026-05-09 03:09 | 35.38298 | -89.69633 | 44913 ft | 544 kts | 134° |
| 2026-05-09 03:09 | 35.33910 | -89.62190 | 44911 ft | 542 kts | 134° |
| 2026-05-09 03:10 | 35.29480 | -89.54687 | 44928 ft | 544 kts | 134° |
| 2026-05-09 03:10 | 35.25040 | -89.47186 | 44935 ft | 545 kts | 133° |
| 2026-05-09 03:11 | 35.20574 | -89.39654 | 44936 ft | 545 kts | 134° |
| 2026-05-09 03:11 | 35.16096 | -89.32121 | 44925 ft | 546 kts | 134° |
| 2026-05-09 03:12 | 35.11639 | -89.24638 | 44924 ft | 544 kts | 135° |
| 2026-05-09 03:12 | 35.07191 | -89.17186 | 44927 ft | 544 kts | 135° |
| 2026-05-09 03:13 | 35.00448 | -89.05921 | 44925 ft | 549 kts | 135° |
| 2026-05-09 03:13 | 34.95951 | -88.98425 | 44929 ft | 547 kts | 135° |
| 2026-05-09 03:14 | 34.91459 | -88.90956 | 44942 ft | 549 kts | 135° |
| 2026-05-09 03:14 | 34.86915 | -88.83416 | 44937 ft | 549 kts | 135° |
| 2026-05-09 03:15 | 34.82372 | -88.75895 | 44955 ft | 549 kts | 135° |
| 2026-05-09 03:15 | 34.77835 | -88.68399 | 44958 ft | 549 kts | 135° |
| 2026-05-09 03:16 | 34.73276 | -88.60880 | 44941 ft | 548 kts | 135° |
| 2026-05-09 03:16 | 34.68713 | -88.53374 | 44947 ft | 547 kts | 135° |
| 2026-05-09 03:17 | 34.64197 | -88.45959 | 44950 ft | 547 kts | 135° |
| 2026-05-09 03:17 | 34.59615 | -88.38449 | 44960 ft | 548 kts | 135° |
| 2026-05-09 03:18 | 34.55055 | -88.30993 | 44928 ft | 548 kts | 135° |
| 2026-05-09 03:18 | 34.50492 | -88.23547 | 44945 ft | 546 kts | 136° |
| 2026-05-09 03:19 | 34.45936 | -88.16131 | 44944 ft | 549 kts | 136° |
| 2026-05-09 03:19 | 34.41342 | -88.08667 | 44937 ft | 549 kts | 136° |
| 2026-05-09 03:20 | 34.36780 | -88.01271 | 44944 ft | 548 kts | 135° |
| 2026-05-09 03:20 | 34.32227 | -87.93900 | 44945 ft | 547 kts | 135° |
| 2026-05-09 03:21 | 34.27657 | -87.86521 | 44954 ft | 549 kts | 136° |
| 2026-05-09 03:21 | 34.23052 | -87.79105 | 44954 ft | 552 kts | 135° |
| 2026-05-09 03:22 | 34.18469 | -87.71728 | 44959 ft | 551 kts | 136° |
| 2026-05-09 03:22 | 34.13850 | -87.64315 | 44972 ft | 550 kts | 136° |
| 2026-05-09 03:23 | 34.09246 | -87.56941 | 44959 ft | 549 kts | 136° |
| 2026-05-09 03:23 | 34.04639 | -87.49580 | 44970 ft | 548 kts | 136° |
| 2026-05-09 03:24 | 34.00051 | -87.42265 | 44978 ft | 549 kts | 136° |
| 2026-05-09 03:24 | 33.95404 | -87.34869 | 44969 ft | 551 kts | 136° |
| 2026-05-09 03:25 | 33.90792 | -87.27536 | 44964 ft | 546 kts | 136° |
| 2026-05-09 03:25 | 33.86201 | -87.20262 | 44957 ft | 547 kts | 136° |
| 2026-05-09 03:26 | 33.81569 | -87.12934 | 44975 ft | 549 kts | 136° |
| 2026-05-09 03:26 | 33.76944 | -87.05629 | 44978 ft | 548 kts | 137° |
| 2026-05-09 03:27 | 33.72339 | -86.98369 | 44951 ft | 547 kts | 137° |
| 2026-05-09 03:27 | 33.67712 | -86.91097 | 44984 ft | 549 kts | 137° |
| 2026-05-09 03:28 | 33.62884 | -86.84074 | 44987 ft | 546 kts | 140° |
| 2026-05-09 03:28 | 33.57984 | -86.77071 | 44985 ft | 546 kts | 140° |
| 2026-05-09 03:29 | 33.53093 | -86.70088 | 44988 ft | 545 kts | 140° |
| 2026-05-09 03:29 | 33.48195 | -86.63111 | 44990 ft | 547 kts | 140° |
| 2026-05-09 03:30 | 33.43269 | -86.56110 | 45012 ft | 546 kts | 140° |
| 2026-05-09 03:30 | 33.38389 | -86.49181 | 44979 ft | 547 kts | 140° |
| 2026-05-09 03:31 | 33.33470 | -86.42213 | 44991 ft | 548 kts | 140° |
| 2026-05-09 03:31 | 33.28520 | -86.35215 | 44990 ft | 548 kts | 140° |
| 2026-05-09 03:32 | 33.23582 | -86.28245 | 44958 ft | 546 kts | 141° |
| 2026-05-09 03:32 | 33.18650 | -86.21303 | 44977 ft | 547 kts | 141° |
| 2026-05-09 03:33 | 33.13688 | -86.14326 | 44986 ft | 549 kts | 141° |
| 2026-05-09 03:33 | 33.08778 | -86.07440 | 44977 ft | 546 kts | 141° |
| 2026-05-09 03:34 | 33.03837 | -86.00520 | 44973 ft | 550 kts | 140° |
| 2026-05-09 03:34 | 32.98870 | -85.93573 | 44978 ft | 551 kts | 141° |
| 2026-05-09 03:35 | 32.93927 | -85.86677 | 44986 ft | 545 kts | 141° |
| 2026-05-09 03:35 | 32.88980 | -85.79796 | 44985 ft | 549 kts | 140° |
| 2026-05-09 03:36 | 32.83992 | -85.72858 | 44993 ft | 551 kts | 140° |
| 2026-05-09 03:36 | 32.78966 | -85.65886 | 44988 ft | 552 kts | 140° |
| 2026-05-09 03:37 | 32.74067 | -85.59106 | 44982 ft | 550 kts | 140° |
| 2026-05-09 03:37 | 32.69057 | -85.52183 | 45013 ft | 551 kts | 140° |
| 2026-05-09 03:38 | 32.64013 | -85.45224 | 45013 ft | 554 kts | 140° |
| 2026-05-09 03:38 | 32.59000 | -85.38322 | 45022 ft | 553 kts | 139° |
| 2026-05-09 03:39 | 32.53975 | -85.31411 | 44976 ft | 550 kts | 141° |
| 2026-05-09 03:39 | 32.48985 | -85.24576 | 44981 ft | 549 kts | 140° |
| 2026-05-09 03:40 | 32.43977 | -85.17715 | 44975 ft | 554 kts | 140° |
| 2026-05-09 03:40 | 32.38906 | -85.10785 | 44966 ft | 554 kts | 140° |
| 2026-05-09 03:41 | 32.33897 | -85.03952 | 44986 ft | 552 kts | 139° |
| 2026-05-09 03:41 | 32.28846 | -84.97073 | 44976 ft | 552 kts | 140° |
| 2026-05-09 03:42 | 32.23842 | -84.90275 | 44972 ft | 549 kts | 140° |
| 2026-05-09 03:42 | 32.18802 | -84.83437 | 44964 ft | 553 kts | 140° |
| 2026-05-09 03:43 | 32.13726 | -84.76559 | 44970 ft | 553 kts | 140° |
| 2026-05-09 03:43 | 32.08659 | -84.69719 | 44976 ft | 550 kts | 139° |
| 2026-05-09 03:44 | 32.03575 | -84.62856 | 44996 ft | 553 kts | 140° |
| 2026-05-09 03:44 | 31.98475 | -84.55991 | 44987 ft | 555 kts | 140° |
| 2026-05-09 03:45 | 31.93384 | -84.49146 | 45003 ft | 554 kts | 140° |
| 2026-05-09 03:45 | 31.88273 | -84.42287 | 44988 ft | 551 kts | 139° |
| 2026-05-09 03:46 | 31.83156 | -84.35433 | 44995 ft | 551 kts | 140° |
| 2026-05-09 03:46 | 31.78085 | -84.28656 | 44981 ft | 547 kts | 140° |
| 2026-05-09 03:47 | 31.73017 | -84.21896 | 44970 ft | 552 kts | 140° |
| 2026-05-09 03:47 | 31.67938 | -84.15131 | 44972 ft | 551 kts | 140° |
| 2026-05-09 03:48 | 31.62839 | -84.08347 | 44987 ft | 549 kts | 140° |
| 2026-05-09 03:48 | 31.57767 | -84.01617 | 44993 ft | 551 kts | 140° |
| 2026-05-09 03:49 | 31.52630 | -83.94811 | 44987 ft | 548 kts | 140° |
| 2026-05-09 03:49 | 31.47535 | -83.88073 | 44997 ft | 548 kts | 140° |
| 2026-05-09 03:50 | 31.42445 | -83.81358 | 44990 ft | 549 kts | 139° |
| 2026-05-09 03:50 | 31.37371 | -83.74669 | 44995 ft | 548 kts | 139° |
| 2026-05-09 03:51 | 31.32301 | -83.67996 | 45007 ft | 547 kts | 140° |
| 2026-05-09 03:51 | 31.27237 | -83.61350 | 45000 ft | 547 kts | 140° |
| 2026-05-09 03:52 | 31.22165 | -83.54697 | 45016 ft | 547 kts | 140° |
| 2026-05-09 03:52 | 31.17122 | -83.48101 | 45014 ft | 545 kts | 140° |
| 2026-05-09 03:53 | 31.12036 | -83.41460 | 45023 ft | 545 kts | 139° |
| 2026-05-09 03:53 | 31.06933 | -83.34803 | 45026 ft | 548 kts | 140° |
| 2026-05-09 03:54 | 31.01841 | -83.28172 | 44992 ft | 545 kts | 140° |
| 2026-05-09 03:54 | 30.96790 | -83.21614 | 45011 ft | 542 kts | 140° |
| 2026-05-09 03:55 | 30.91705 | -83.15015 | 45016 ft | 545 kts | 140° |
| 2026-05-09 03:55 | 30.86612 | -83.08422 | 45010 ft | 547 kts | 140° |
| 2026-05-09 03:56 | 30.81539 | -83.01859 | 45020 ft | 545 kts | 140° |
| 2026-05-09 03:56 | 30.76468 | -82.95312 | 45009 ft | 542 kts | 140° |
| 2026-05-09 03:57 | 30.71402 | -82.88788 | 45001 ft | 543 kts | 140° |
| 2026-05-09 03:57 | 30.66321 | -82.82252 | 45013 ft | 546 kts | 140° |
| 2026-05-09 03:58 | 30.61218 | -82.75698 | 45007 ft | 542 kts | 140° |
| 2026-05-09 03:58 | 30.56180 | -82.69243 | 45020 ft | 543 kts | 139° |
| 2026-05-09 03:59 | 30.51086 | -82.62723 | 45027 ft | 545 kts | 139° |
| 2026-05-09 03:59 | 30.46002 | -82.56226 | 45020 ft | 545 kts | 140° |
| 2026-05-09 04:00 | 30.40881 | -82.49698 | 45023 ft | 546 kts | 140° |
| 2026-05-09 04:00 | 30.35785 | -82.43205 | 45024 ft | 541 kts | 139° |
| 2026-05-09 04:01 | 30.30704 | -82.36749 | 45034 ft | 542 kts | 139° |
| 2026-05-09 04:01 | 30.25607 | -82.30280 | 45014 ft | 541 kts | 140° |
| 2026-05-09 04:02 | 30.20522 | -82.23837 | 45002 ft | 542 kts | 140° |
| 2026-05-09 04:02 | 30.15400 | -82.17360 | 45013 ft | 541 kts | 139° |
| 2026-05-09 04:03 | 30.10305 | -82.10926 | 45020 ft | 544 kts | 139° |
| 2026-05-09 04:03 | 30.05238 | -82.04536 | 45020 ft | 541 kts | 139° |
| 2026-05-09 04:04 | 30.00135 | -81.98114 | 45024 ft | 542 kts | 139° |
| 2026-05-09 04:04 | 29.95048 | -81.91720 | 45014 ft | 540 kts | 139° |
| 2026-05-09 04:05 | 29.89968 | -81.85345 | 45016 ft | 536 kts | 140° |
| 2026-05-09 04:05 | 29.84917 | -81.79022 | 44999 ft | 537 kts | 139° |
| 2026-05-09 04:06 | 29.79833 | -81.72668 | 45014 ft | 541 kts | 139° |
| 2026-05-09 04:06 | 29.74755 | -81.66322 | 45024 ft | 539 kts | 140° |
| 2026-05-09 04:07 | 29.69663 | -81.59977 | 45014 ft | 537 kts | 139° |
| 2026-05-09 04:07 | 29.64569 | -81.53639 | 45011 ft | 539 kts | 139° |
| 2026-05-09 04:08 | 29.59442 | -81.47267 | 45013 ft | 538 kts | 139° |
| 2026-05-09 04:08 | 29.54366 | -81.40971 | 45020 ft | 535 kts | 139° |
| 2026-05-09 04:09 | 29.49345 | -81.34752 | 45015 ft | 533 kts | 139° |
| 2026-05-09 04:09 | 29.44290 | -81.28500 | 45015 ft | 534 kts | 139° |
| 2026-05-09 04:10 | 29.39219 | -81.22241 | 45003 ft | 533 kts | 139° |
| 2026-05-09 04:10 | 29.34176 | -81.16023 | 45015 ft | 534 kts | 139° |
| 2026-05-09 04:11 | 29.29056 | -81.09890 | 45006 ft | 529 kts | 143° |
| 2026-05-09 04:11 | 29.23729 | -81.04035 | 45018 ft | 529 kts | 143° |
| 2026-05-09 04:12 | 29.18427 | -80.98219 | 45013 ft | 526 kts | 143° |
| 2026-05-09 04:12 | 29.13069 | -80.92354 | 45022 ft | 529 kts | 143° |
| 2026-05-09 04:13 | 29.07739 | -80.86523 | 45025 ft | 528 kts | 143° |
| 2026-05-09 04:13 | 29.02404 | -80.80698 | 45016 ft | 525 kts | 143° |
| 2026-05-09 04:14 | 28.97109 | -80.74927 | 45023 ft | 527 kts | 143° |
| 2026-05-09 04:14 | 28.91778 | -80.69122 | 45014 ft | 525 kts | 143° |
| 2026-05-09 04:15 | 28.86509 | -80.63396 | 45015 ft | 525 kts | 143° |
| 2026-05-09 04:15 | 28.81555 | -80.57217 | 45048 ft | 533 kts | 131° |
| 2026-05-09 04:16 | 28.77184 | -80.50511 | 45010 ft | 535 kts | 131° |
| 2026-05-09 04:16 | 28.72739 | -80.43736 | 45025 ft | 533 kts | 131° |
| 2026-05-09 04:17 | 28.68438 | -80.36835 | 45004 ft | 534 kts | 128° |
| 2026-05-09 04:17 | 28.64271 | -80.29781 | 44997 ft | 533 kts | 128° |
| 2026-05-09 04:18 | 28.60125 | -80.22797 | 44988 ft | 534 kts | 129° |
| 2026-05-09 04:18 | 28.55993 | -80.15849 | 44996 ft | 534 kts | 128° |
| 2026-05-09 04:19 | 28.51810 | -80.08826 | 44986 ft | 533 kts | 128° |
| 2026-05-09 04:19 | 28.47657 | -80.01868 | 44985 ft | 532 kts | 129° |
| 2026-05-09 04:20 | 28.43507 | -79.94927 | 44993 ft | 533 kts | 128° |
| 2026-05-09 04:20 | 28.39346 | -79.87976 | 44996 ft | 534 kts | 128° |
| 2026-05-09 04:21 | 28.35133 | -79.80951 | 45001 ft | 533 kts | 128° |
| 2026-05-09 04:22 | 28.28889 | -79.70561 | 44999 ft | 534 kts | 128° |
| 2026-05-09 04:22 | 28.24690 | -79.63587 | 44993 ft | 536 kts | 128° |
| 2026-05-09 04:23 | 28.20491 | -79.56622 | 44997 ft | 534 kts | 128° |
| 2026-05-09 04:23 | 28.16305 | -79.49696 | 44999 ft | 535 kts | 128° |
| 2026-05-09 04:24 | 28.12114 | -79.42766 | 44990 ft | 534 kts | 128° |
| 2026-05-09 04:24 | 28.07892 | -79.35802 | 45009 ft | 534 kts | 128° |
| 2026-05-09 04:25 | 28.03681 | -79.28864 | 44982 ft | 532 kts | 128° |
| 2026-05-09 04:25 | 27.99491 | -79.21972 | 44978 ft | 533 kts | 128° |
| 2026-05-09 04:26 | 27.95289 | -79.15072 | 44981 ft | 534 kts | 128° |
| 2026-05-09 04:26 | 27.91073 | -79.08159 | 44991 ft | 533 kts | 128° |
| 2026-05-09 04:27 | 27.86876 | -79.01292 | 44988 ft | 532 kts | 128° |
| 2026-05-09 04:27 | 27.82683 | -78.94438 | 44987 ft | 531 kts | 128° |
| 2026-05-09 04:28 | 27.78461 | -78.87550 | 44983 ft | 531 kts | 128° |
| 2026-05-09 04:28 | 27.74247 | -78.80685 | 44993 ft | 531 kts | 128° |
| 2026-05-09 04:29 | 27.70062 | -78.73877 | 45011 ft | 531 kts | 128° |
| 2026-05-09 04:29 | 27.65827 | -78.67003 | 45000 ft | 531 kts | 128° |
| 2026-05-09 04:29 | 27.63401 | -78.63969 | 45018 ft | 517 kts | 146° |
| 2026-05-09 04:30 | 27.60504 | -78.61575 | 45000 ft | 515 kts | 150° |
| 2026-05-09 04:30 | 27.54625 | -78.56994 | 45005 ft | 516 kts | 151° |
| 2026-05-09 04:31 | 27.48703 | -78.52404 | 45020 ft | 514 kts | 151° |
| 2026-05-09 04:31 | 27.42800 | -78.47836 | 45017 ft | 514 kts | 150° |
| 2026-05-09 04:32 | 27.36905 | -78.43282 | 45013 ft | 513 kts | 150° |
| 2026-05-09 04:32 | 27.31030 | -78.38749 | 45021 ft | 513 kts | 150° |
| 2026-05-09 04:33 | 27.25120 | -78.34193 | 45014 ft | 514 kts | 151° |
| 2026-05-09 04:33 | 27.19222 | -78.29654 | 45005 ft | 513 kts | 151° |
| 2026-05-09 04:34 | 27.13338 | -78.25132 | 44999 ft | 512 kts | 151° |
| 2026-05-09 04:34 | 27.07493 | -78.20645 | 45004 ft | 511 kts | 151° |
| 2026-05-09 04:35 | 27.01645 | -78.16161 | 45004 ft | 511 kts | 151° |
| 2026-05-09 04:35 | 26.95758 | -78.11654 | 45001 ft | 511 kts | 151° |
| 2026-05-09 04:36 | 26.89866 | -78.07149 | 45003 ft | 512 kts | 150° |
| 2026-05-09 04:36 | 26.83974 | -78.02649 | 45000 ft | 511 kts | 150° |
| 2026-05-09 04:37 | 26.78107 | -77.98174 | 45002 ft | 509 kts | 150° |
| 2026-05-09 04:37 | 26.72245 | -77.93708 | 45010 ft | 510 kts | 150° |
| 2026-05-09 04:38 | 26.66410 | -77.89269 | 45010 ft | 510 kts | 150° |
| 2026-05-09 04:38 | 26.60520 | -77.84793 | 45011 ft | 510 kts | 150° |
| 2026-05-09 04:39 | 26.54666 | -77.80351 | 45010 ft | 510 kts | 150° |
| 2026-05-09 04:39 | 26.48811 | -77.75914 | 45008 ft | 509 kts | 150° |
| 2026-05-09 04:40 | 26.42942 | -77.71471 | 45013 ft | 509 kts | 150° |
| 2026-05-09 04:40 | 26.37079 | -77.67039 | 45014 ft | 508 kts | 150° |
| 2026-05-09 04:41 | 26.31209 | -77.62607 | 45015 ft | 509 kts | 150° |
| 2026-05-09 04:41 | 26.25318 | -77.58164 | 45013 ft | 508 kts | 150° |
| 2026-05-09 04:42 | 26.19470 | -77.53759 | 45015 ft | 507 kts | 150° |
| 2026-05-09 04:42 | 26.13637 | -77.49371 | 45013 ft | 507 kts | 149° |
| 2026-05-09 04:43 | 26.07773 | -77.44965 | 45015 ft | 507 kts | 149° |
| 2026-05-09 04:43 | 26.01953 | -77.40597 | 45017 ft | 507 kts | 149° |
| 2026-05-09 04:44 | 25.96088 | -77.36201 | 45016 ft | 506 kts | 149° |
| 2026-05-09 04:44 | 25.90329 | -77.31888 | 44961 ft | 490 kts | 150° |
| 2026-05-09 04:45 | 25.84720 | -77.27696 | 44540 ft | 488 kts | 150° |
| 2026-05-09 04:45 | 25.81893 | -77.25586 | 43985 ft | 491 kts | 150° |
| 2026-05-09 04:45 | 25.79072 | -77.23479 | 43435 ft | 491 kts | 150° |
| 2026-05-09 04:45 | 25.76208 | -77.21342 | 42880 ft | 491 kts | 150° |
| 2026-05-09 04:46 | 25.73394 | -77.19243 | 42339 ft | 489 kts | 149° |
| 2026-05-09 04:46 | 25.70566 | -77.17135 | 41795 ft | 488 kts | 149° |
| 2026-05-09 04:46 | 25.67740 | -77.15030 | 41255 ft | 488 kts | 149° |
| 2026-05-09 04:46 | 25.64955 | -77.12957 | 40729 ft | 488 kts | 149° |
| 2026-05-09 04:47 | 25.62135 | -77.10859 | 40197 ft | 489 kts | 149° |
| 2026-05-09 04:47 | 25.59290 | -77.08744 | 39686 ft | 489 kts | 149° |
| 2026-05-09 04:47 | 25.56499 | -77.06670 | 39208 ft | 489 kts | 149° |
| 2026-05-09 04:47 | 25.53674 | -77.04571 | 38725 ft | 489 kts | 149° |
| 2026-05-09 04:48 | 25.50824 | -77.02455 | 38273 ft | 489 kts | 149° |
| 2026-05-09 04:48 | 25.48026 | -77.00379 | 37835 ft | 490 kts | 149° |
| 2026-05-09 04:48 | 25.45163 | -76.98257 | 37304 ft | 491 kts | 149° |
| 2026-05-09 04:48 | 25.42347 | -76.96170 | 36717 ft | 491 kts | 149° |
| 2026-05-09 04:49 | 25.39515 | -76.94071 | 36130 ft | 491 kts | 149° |
| 2026-05-09 04:49 | 25.36678 | -76.91972 | 35546 ft | 491 kts | 149° |
| 2026-05-09 04:49 | 25.33843 | -76.89875 | 34967 ft | 492 kts | 149° |
| 2026-05-09 04:49 | 25.30982 | -76.87759 | 34390 ft | 494 kts | 149° |
| 2026-05-09 04:50 | 25.28130 | -76.85653 | 33820 ft | 495 kts | 149° |
| 2026-05-09 04:50 | 25.25262 | -76.83534 | 33253 ft | 496 kts | 149° |
| 2026-05-09 04:50 | 25.22398 | -76.81420 | 32621 ft | 499 kts | 149° |
| 2026-05-09 04:50 | 25.19514 | -76.79293 | 31993 ft | 500 kts | 149° |
| 2026-05-09 04:51 | 25.16628 | -76.77166 | 31367 ft | 501 kts | 149° |
| 2026-05-09 04:51 | 25.13725 | -76.75028 | 30740 ft | 502 kts | 149° |
| 2026-05-09 04:51 | 25.10809 | -76.72881 | 30120 ft | 505 kts | 149° |
| 2026-05-09 04:51 | 25.07894 | -76.70735 | 29498 ft | 501 kts | 148° |
| 2026-05-09 04:52 | 25.05035 | -76.68631 | 28926 ft | 495 kts | 148° |
| 2026-05-09 04:52 | 25.02152 | -76.66512 | 28432 ft | 491 kts | 148° |
| 2026-05-09 04:52 | 24.99351 | -76.64455 | 27946 ft | 489 kts | 148° |
| 2026-05-09 04:52 | 24.96499 | -76.62360 | 27453 ft | 486 kts | 148° |
| 2026-05-09 04:53 | 24.93727 | -76.60327 | 26974 ft | 483 kts | 148° |
| 2026-05-09 04:53 | 24.90914 | -76.58263 | 26480 ft | 479 kts | 148° |
| 2026-05-09 04:53 | 24.88163 | -76.56247 | 25989 ft | 476 kts | 148° |
| 2026-05-09 04:53 | 24.85434 | -76.54247 | 25498 ft | 472 kts | 148° |
| 2026-05-09 04:54 | 24.82688 | -76.52236 | 25001 ft | 469 kts | 148° |
| 2026-05-09 04:54 | 24.80016 | -76.50281 | 24516 ft | 466 kts | 148° |
| 2026-05-09 04:54 | 24.77325 | -76.48314 | 24023 ft | 463 kts | 148° |
| 2026-05-09 04:54 | 24.74642 | -76.46352 | 23533 ft | 459 kts | 148° |
| 2026-05-09 04:55 | 24.71983 | -76.44410 | 23046 ft | 456 kts | 147° |
| 2026-05-09 04:55 | 24.69376 | -76.42506 | 22568 ft | 453 kts | 147° |
| 2026-05-09 04:55 | 24.66738 | -76.40579 | 22092 ft | 449 kts | 147° |
| 2026-05-09 04:55 | 24.64164 | -76.38702 | 21634 ft | 444 kts | 147° |
| 2026-05-09 04:56 | 24.61607 | -76.36837 | 21173 ft | 439 kts | 147° |
| 2026-05-09 04:56 | 24.59909 | -76.35599 | 20863 ft | 436 kts | 147° |
| 2026-05-09 04:56 | 24.56581 | -76.33176 | 20240 ft | 431 kts | 147° |
| 2026-05-09 04:56 | 24.54099 | -76.31369 | 19769 ft | 427 kts | 147° |
| 2026-05-09 04:57 | 24.51624 | -76.29567 | 19296 ft | 422 kts | 147° |
| 2026-05-09 04:57 | 24.49183 | -76.27792 | 18825 ft | 417 kts | 147° |
| 2026-05-09 04:57 | 24.46795 | -76.26055 | 18358 ft | 413 kts | 147° |
| 2026-05-09 04:57 | 24.44393 | -76.24309 | 17882 ft | 409 kts | 147° |
| 2026-05-09 04:58 | 24.42043 | -76.22603 | 17412 ft | 405 kts | 146° |
| 2026-05-09 04:58 | 24.39706 | -76.20906 | 16936 ft | 401 kts | 146° |
| 2026-05-09 04:58 | 24.37373 | -76.19212 | 16456 ft | 398 kts | 146° |
| 2026-05-09 04:58 | 24.35102 | -76.17564 | 15987 ft | 393 kts | 146° |
| 2026-05-09 04:59 | 24.32829 | -76.15916 | 15516 ft | 389 kts | 146° |
| 2026-05-09 04:59 | 24.30575 | -76.14284 | 15036 ft | 386 kts | 146° |
| 2026-05-09 04:59 | 24.28345 | -76.12668 | 14557 ft | 381 kts | 146° |
| 2026-05-09 04:59 | 24.26168 | -76.11092 | 14087 ft | 376 kts | 146° |
| 2026-05-09 05:00 | 24.23992 | -76.09515 | 13612 ft | 372 kts | 146° |
| 2026-05-09 05:00 | 24.21856 | -76.07970 | 13138 ft | 368 kts | 146° |
| 2026-05-09 05:00 | 24.19733 | -76.06435 | 12668 ft | 364 kts | 145° |
| 2026-05-09 05:00 | 24.17602 | -76.04894 | 12189 ft | 362 kts | 146° |
| 2026-05-09 05:01 | 24.15528 | -76.03395 | 11717 ft | 358 kts | 145° |
| 2026-05-09 05:01 | 24.13466 | -76.01905 | 11248 ft | 356 kts | 145° |
| 2026-05-09 05:01 | 24.11412 | -76.00421 | 10775 ft | 352 kts | 145° |
| 2026-05-09 05:01 | 24.09381 | -75.98956 | 10293 ft | 343 kts | 145° |
| 2026-05-09 05:02 | 24.07429 | -75.97547 | 9813 ft | 334 kts | 145° |
| 2026-05-09 05:02 | 24.05498 | -75.96154 | 9330 ft | 327 kts | 146° |
| 2026-05-09 05:02 | 24.03620 | -75.94809 | 8851 ft | 320 kts | 146° |
| 2026-05-09 05:02 | 24.01767 | -75.93496 | 8373 ft | 315 kts | 146° |
| 2026-05-09 05:03 | 23.99945 | -75.92204 | 7890 ft | 310 kts | 146° |
| 2026-05-09 05:03 | 23.98150 | -75.90934 | 7492 ft | 303 kts | 146° |
| 2026-05-09 05:03 | 23.96433 | -75.89719 | 7067 ft | 277 kts | 146° |
| 2026-05-09 05:03 | 23.94894 | -75.88631 | 6916 ft | 251 kts | 146° |
| 2026-05-09 05:04 | 23.93432 | -75.87595 | 6853 ft | 254 kts | 145° |
| 2026-05-09 05:04 | 23.91947 | -75.86543 | 6599 ft | 253 kts | 146° |
| 2026-05-09 05:04 | 23.90482 | -75.85507 | 6357 ft | 250 kts | 146° |
| 2026-05-09 05:04 | 23.89026 | -75.84477 | 6115 ft | 249 kts | 146° |
| 2026-05-09 05:05 | 23.87567 | -75.83446 | 5874 ft | 247 kts | 145° |
| 2026-05-09 05:05 | 23.86132 | -75.82432 | 5635 ft | 246 kts | 145° |
| 2026-05-09 05:05 | 23.85163 | -75.81747 | 5472 ft | 245 kts | 145° |
| 2026-05-09 05:05 | 23.83241 | -75.80437 | 5142 ft | 245 kts | 154° |
| 2026-05-09 05:06 | 23.81591 | -75.79926 | 4910 ft | 246 kts | 165° |
| 2026-05-09 05:06 | 23.79917 | -75.79608 | 4622 ft | 244 kts | 170° |
| 2026-05-09 05:06 | 23.78272 | -75.79387 | 4340 ft | 230 kts | 170° |
| 2026-05-09 05:06 | 23.76712 | -75.79191 | 4062 ft | 222 kts | 170° |
| 2026-05-09 05:07 | 23.75200 | -75.79005 | 3764 ft | 212 kts | 170° |
| 2026-05-09 05:07 | 23.74226 | -75.78893 | 3556 ft | 204 kts | 170° |
| 2026-05-09 05:07 | 23.72395 | -75.78692 | 3210 ft | 196 kts | 170° |
| 2026-05-09 05:07 | 23.71032 | -75.78549 | 3194 ft | 190 kts | 170° |
| 2026-05-09 05:08 | 23.69725 | -75.78411 | 3196 ft | 187 kts | 170° |
| 2026-05-09 05:08 | 23.68437 | -75.78272 | 3240 ft | 188 kts | 170° |
| 2026-05-09 05:08 | 23.67114 | -75.78129 | 3201 ft | 189 kts | 170° |
| 2026-05-09 05:08 | 23.65804 | -75.77990 | 3199 ft | 188 kts | 170° |
| 2026-05-09 05:09 | 23.64499 | -75.77854 | 3198 ft | 186 kts | 170° |
| 2026-05-09 05:09 | 23.63207 | -75.77721 | 3194 ft | 183 kts | 170° |
| 2026-05-09 05:09 | 23.61995 | -75.77397 | 3225 ft | 176 kts | 150° |
| 2026-05-09 05:09 | 23.60859 | -75.76841 | 3208 ft | 179 kts | 152° |
| 2026-05-09 05:10 | 23.59747 | -75.76315 | 3180 ft | 165 kts | 152° |
| 2026-05-09 05:10 | 23.58731 | -75.75841 | 3056 ft | 154 kts | 152° |
| 2026-05-09 05:10 | 23.57750 | -75.75393 | 2921 ft | 151 kts | 152° |
| 2026-05-09 05:10 | 23.56775 | -75.74947 | 2797 ft | 151 kts | 152° |
| 2026-05-09 05:11 | 23.55814 | -75.74508 | 2678 ft | 151 kts | 152° |
| 2026-05-09 05:11 | 23.54847 | -75.74066 | 2686 ft | 149 kts | 152° |
| 2026-05-09 05:11 | 23.53888 | -75.73627 | 2688 ft | 150 kts | 152° |
| 2026-05-09 05:11 | 23.52913 | -75.73180 | 2686 ft | 150 kts | 152° |
| 2026-05-09 05:12 | 23.51946 | -75.72735 | 2682 ft | 151 kts | 152° |
| 2026-05-09 05:12 | 23.51021 | -75.72255 | 2674 ft | 144 kts | 146° |
| 2026-05-09 05:12 | 23.50151 | -75.71707 | 2682 ft | 143 kts | 145° |
| 2026-05-09 05:12 | 23.49331 | -75.71090 | 2684 ft | 142 kts | 139° |
| 2026-05-09 05:13 | 23.48572 | -75.70394 | 2683 ft | 141 kts | 131° |
| 2026-05-09 05:13 | 23.47888 | -75.69628 | 2685 ft | 141 kts | 130° |
| 2026-05-09 05:13 | 23.47198 | -75.68856 | 2676 ft | 142 kts | 130° |
| 2026-05-09 05:13 | 23.46515 | -75.68077 | 2570 ft | 141 kts | 128° |
| 2026-05-09 05:14 | 23.45901 | -75.67249 | 2528 ft | 139 kts | 124° |
| 2026-05-09 05:14 | 23.45309 | -75.66417 | 2494 ft | 140 kts | 124° |
| 2026-05-09 05:14 | 23.44729 | -75.65581 | 2344 ft | 138 kts | 123° |
| 2026-05-09 05:14 | 23.44187 | -75.64715 | 2183 ft | 138 kts | 119° |
| 2026-05-09 05:15 | 23.43759 | -75.63786 | 2088 ft | 136 kts | 113° |
| 2026-05-09 05:15 | 23.43406 | -75.62833 | 2024 ft | 135 kts | 107° |
| 2026-05-09 05:15 | 23.43100 | -75.61860 | 1949 ft | 135 kts | 107° |
| 2026-05-09 05:15 | 23.42848 | -75.60939 | 1845 ft | 116 kts | 105° |
| 2026-05-09 05:16 | 23.42618 | -75.60115 | 1527 ft | 113 kts | 105° |
| 2026-05-09 05:16 | 23.42410 | -75.59314 | 1207 ft | 111 kts | 104° |
| 2026-05-09 05:16 | 23.42270 | -75.58777 | 1035 ft | 111 kts | 104° |
| 2026-05-09 05:16 | 23.41984 | -75.57717 | 758 ft | 108 kts | 105° |
| 2026-05-09 05:17 | 23.41781 | -75.56921 | 645 ft | 116 kts | 103° |
| 2026-05-09 05:17 | 23.41499 | -75.55884 | 889 ft | 150 kts | 107° |
| 2026-05-09 05:17 | 23.41239 | -75.54964 | 842 ft | 115 kts | 104° |
| 2026-05-09 05:17 | 23.41032 | -75.54143 | 617 ft | 110 kts | 104° |
| 2026-05-09 05:18 | 23.40791 | -75.53344 | 407 ft | 110 kts | 107° |
| 2026-05-09 05:18 | 23.40559 | -75.52554 | 283 ft | 111 kts | 105° |
| 2026-05-09 05:18 | 23.40330 | -75.51731 | 166 ft | 113 kts | 105° |
| 2026-05-09 05:18 | 23.40077 | -75.50893 | 221 ft | 120 kts | 106° |
| 2026-05-09 05:19 | 23.39812 | -75.49903 | 629 ft | 152 kts | 105° |
| 2026-05-09 05:19 | 23.39447 | -75.48650 | 1216 ft | 212 kts | 106° |
| 2026-05-09 05:19 | 23.39046 | -75.47276 | 2149 ft | 158 kts | 106° |
| 2026-05-09 05:19 | 23.38720 | -75.46162 | 2665 ft | 179 kts | 106° |
| 2026-05-09 05:20 | 23.38491 | -75.44782 | 2693 ft | 186 kts | 95° |
| 2026-05-09 05:20 | 23.38389 | -75.43411 | 2676 ft | 178 kts | 94° |
| 2026-05-09 05:20 | 23.38398 | -75.42085 | 2674 ft | 176 kts | 77° |
| 2026-05-09 05:20 | 23.38790 | -75.40813 | 2688 ft | 178 kts | 71° |
| 2026-05-09 05:21 | 23.39224 | -75.39560 | 2679 ft | 178 kts | 68° |
| 2026-05-09 05:21 | 23.39909 | -75.38426 | 2738 ft | 180 kts | 53° |
| 2026-05-09 05:21 | 23.40734 | -75.37398 | 2811 ft | 181 kts | 50° |
| 2026-05-09 05:21 | 23.41613 | -75.36406 | 2880 ft | 182 kts | 49° |
| 2026-05-09 05:22 | 23.42738 | -75.35719 | 2950 ft | 189 kts | 20° |
| 2026-05-09 05:22 | 23.44017 | -75.35354 | 2941 ft | 191 kts | 18° |
| 2026-05-09 05:22 | 23.45332 | -75.35197 | 2934 ft | 187 kts | 352° |
| 2026-05-09 05:22 | 23.46502 | -75.35696 | 2977 ft | 178 kts | 338° |
| 2026-05-09 05:23 | 23.47576 | -75.36375 | 2891 ft | 179 kts | 328° |
| 2026-05-09 05:23 | 23.48503 | -75.37288 | 2809 ft | 182 kts | 306° |
| 2026-05-09 05:23 | 23.49164 | -75.38467 | 2750 ft | 182 kts | 302° |
| 2026-05-09 05:23 | 23.49786 | -75.39664 | 2669 ft | 180 kts | 296° |
| 2026-05-09 05:24 | 23.50300 | -75.40905 | 2588 ft | 177 kts | 295° |
| 2026-05-09 05:24 | 23.50787 | -75.42136 | 2511 ft | 178 kts | 292° |
| 2026-05-09 05:24 | 23.51218 | -75.43403 | 2446 ft | 177 kts | 291° |
| 2026-05-09 05:24 | 23.51645 | -75.44659 | 2436 ft | 178 kts | 291° |
| 2026-05-09 05:25 | 23.52072 | -75.45929 | 2433 ft | 176 kts | 289° |
| 2026-05-09 05:25 | 23.52421 | -75.47178 | 2427 ft | 170 kts | 287° |
| 2026-05-09 05:25 | 23.52921 | -75.49606 | 2263 ft | 162 kts | 278° |
| 2026-05-09 05:26 | 23.53019 | -75.50812 | 2142 ft | 156 kts | 270° |
| 2026-05-09 05:26 | 23.53044 | -75.51995 | 2023 ft | 155 kts | 270° |
| 2026-05-09 05:26 | 23.53061 | -75.53157 | 1935 ft | 154 kts | 266° |
| 2026-05-09 05:26 | 23.52786 | -75.54283 | 1948 ft | 154 kts | 247° |
| 2026-05-09 05:27 | 23.52379 | -75.55362 | 1911 ft | 154 kts | 242° |
| 2026-05-09 05:27 | 23.51912 | -75.56403 | 1924 ft | 154 kts | 240° |
| 2026-05-09 05:27 | 23.51366 | -75.57398 | 1907 ft | 149 kts | 218° |
| 2026-05-09 05:27 | 23.50563 | -75.58064 | 1917 ft | 142 kts | 209° |
| 2026-05-09 05:28 | 23.49770 | -75.58679 | 1917 ft | 140 kts | 209° |
| 2026-05-09 05:28 | 23.48954 | -75.59261 | 1911 ft | 137 kts | 195° |
| 2026-05-09 05:28 | 23.48103 | -75.59719 | 1919 ft | 134 kts | 201° |
| 2026-05-09 05:28 | 23.47288 | -75.60192 | 1916 ft | 133 kts | 201° |
| 2026-05-09 05:29 | 23.46467 | -75.60671 | 1921 ft | 132 kts | 201° |
| 2026-05-09 05:29 | 23.45621 | -75.61041 | 1913 ft | 126 kts | 178° |
| 2026-05-09 05:29 | 23.44755 | -75.61057 | 1925 ft | 124 kts | 167° |
| 2026-05-09 05:29 | 23.43907 | -75.60895 | 1926 ft | 123 kts | 162° |
| 2026-05-09 05:30 | 23.43191 | -75.60468 | 1929 ft | 115 kts | 129° |
| 2026-05-09 05:30 | 23.42724 | -75.59753 | 1817 ft | 116 kts | 117° |
| 2026-05-09 05:30 | 23.42391 | -75.58974 | 1643 ft | 113 kts | 108° |
| 2026-05-09 05:30 | 23.42150 | -75.58164 | 1538 ft | 112 kts | 105° |
| 2026-05-09 05:31 | 23.41923 | -75.57350 | 1407 ft | 112 kts | 105° |
| 2026-05-09 05:31 | 23.41718 | -75.56536 | 1300 ft | 112 kts | 104° |
| 2026-05-09 05:31 | 23.41487 | -75.55725 | 1206 ft | 111 kts | 106° |
| 2026-05-09 05:31 | 23.41249 | -75.54940 | 1061 ft | 109 kts | 105° |
| 2026-05-09 05:32 | 23.41013 | -75.54140 | 869 ft | 109 kts | 107° |
| 2026-05-09 05:32 | 23.40787 | -75.53326 | 667 ft | 112 kts | 103° |
| 2026-05-09 05:32 | 23.40560 | -75.52514 | 415 ft | 116 kts | 107° |
| 2026-05-09 05:32 | 23.40319 | -75.51685 | 220 ft | 114 kts | 105° |
| 2026-05-09 05:33 | 23.40085 | -75.50875 | 92 ft | 114 kts | 105° |
| 2026-05-09 05:33 | 23.39861 | -75.50089 | 17 ft | 98 kts | 107° |
| 2026-05-09 05:33 | 23.39711 | -75.49561 | 17 ft | 41 kts | 107° |
| 2026-05-09 05:33 | 23.39612 | -75.49216 | 17 ft | 33 kts | 107° |
| 2026-05-09 05:34 | 23.39559 | -75.49087 | 17 ft | 5 kts | 152° |
| 2026-05-09 05:34 | 23.39550 | -75.49083 | 17 ft | 0 kts | 163° |
| 2026-05-09 05:34 | 23.39549 | -75.49083 | 17 ft | 0 kts | 164° |
| 2026-05-09 05:34 | 23.39540 | -75.49081 | 17 ft | 0 kts | 172° |
| 2026-05-09 05:35 | 23.39535 | -75.49081 | 17 ft | 4 kts | 179° |
| 2026-05-09 05:36 | 23.39506 | -75.49084 | 17 ft | 0 kts | 189° |
| 2026-05-09 05:36 | 23.39492 | -75.49090 | 17 ft | 5 kts | 199° |
| 2026-05-09 05:36 | 23.39488 | -75.49091 | 17 ft | 0 kts | 199° |